createdAt,value
2022-11-21T00:01:19.607Z,4.52
2022-11-21T00:03:47.297Z,4.51
2022-11-21T00:06:15.788Z,4.66
2022-11-21T00:08:43.898Z,4.38
2022-11-21T00:11:12.608Z,4.68
2022-11-21T00:13:40.408Z,4.79
2022-11-21T00:16:10.070Z,4.43
2022-11-21T00:18:39.259Z,4.74
2022-11-21T00:21:08.874Z,4.66
2022-11-21T00:23:36.755Z,4.73
2022-11-21T00:26:06.491Z,4.64
2022-11-21T00:28:34.202Z,4.68
2022-11-21T00:31:02.304Z,4.81
2022-11-21T00:33:29.987Z,4.67
2022-11-21T00:36:01.588Z,4.80
2022-11-21T00:38:29.248Z,4.65
2022-11-21T00:40:57.368Z,4.84
2022-11-21T00:43:25.027Z,4.76
2022-11-21T00:45:53.318Z,4.70
2022-11-21T00:48:20.977Z,4.62
2022-11-21T00:50:50.197Z,4.95
2022-11-21T00:53:19.237Z,4.82
2022-11-21T00:55:47.505Z,5.02
2022-11-21T00:58:15.188Z,4.86
2022-11-21T01:00:43.070Z,5.01
2022-11-21T01:03:11.138Z,4.85
2022-11-21T01:05:38.801Z,4.76
2022-11-21T01:08:07.484Z,4.62
2022-11-21T01:10:37.062Z,4.97
2022-11-21T01:13:05.545Z,4.87
2022-11-21T01:15:34.691Z,5.04
2022-11-21T01:18:02.972Z,4.98
2022-11-21T01:20:30.616Z,5.06
2022-11-21T01:22:58.936Z,5.28
2022-11-21T01:25:26.608Z,4.96
2022-11-21T01:27:55.897Z,5.17
2022-11-21T01:30:23.596Z,5.30
2022-11-21T01:32:51.648Z,5.22
2022-11-21T01:35:20.146Z,5.27
2022-11-21T01:37:48.853Z,5.38
2022-11-21T01:40:17.123Z,5.47
2022-11-21T01:42:53.034Z,5.60
2022-11-21T01:45:54.132Z,5.61
2022-11-21T01:48:26.637Z,5.53
2022-11-21T01:50:56.076Z,5.60
2022-11-21T01:53:24.478Z,5.72
2022-11-21T01:55:53.039Z,5.73
2022-11-21T01:58:22.113Z,5.68
2022-11-21T02:00:50.209Z,5.73
2022-11-21T02:03:23.388Z,5.52
2022-11-21T02:05:52.771Z,5.61
2022-11-21T02:08:22.931Z,5.29
2022-11-21T02:10:58.971Z,5.57
2022-11-21T02:13:27.152Z,5.25
2022-11-21T02:15:55.201Z,5.31
2022-11-21T02:18:24.624Z,5.08
2022-11-21T02:21:03.657Z,4.94
2022-11-21T02:23:40.485Z,5.05
2022-11-21T02:26:09.897Z,4.92
2022-11-21T02:28:38.457Z,5.03
2022-11-21T02:31:06.132Z,4.86
2022-11-21T02:33:33.834Z,4.95
2022-11-21T02:36:02.517Z,4.94
2022-11-21T02:38:33.984Z,4.79
2022-11-21T02:41:08.632Z,5.01
2022-11-21T02:43:42.973Z,4.89
2022-11-21T02:46:10.678Z,4.88
2022-11-21T02:48:39.492Z,4.92
2022-11-21T02:51:07.173Z,4.96
2022-11-21T02:53:35.155Z,4.90
2022-11-21T02:56:02.883Z,4.93
2022-11-21T02:58:31.308Z,5.01
2022-11-21T03:01:00.399Z,5.09
2022-11-21T03:03:28.292Z,5.10
2022-11-21T03:05:56.412Z,5.08
2022-11-21T03:08:24.781Z,5.08
2022-11-21T03:10:52.590Z,5.12
2022-11-21T03:13:20.893Z,5.17
2022-11-21T03:15:48.605Z,5.23
2022-11-21T03:18:18.184Z,5.15
2022-11-21T03:20:45.836Z,5.28
2022-11-21T03:23:13.847Z,5.16
2022-11-21T03:25:41.485Z,5.07
2022-11-21T03:28:09.148Z,5.33
2022-11-21T03:30:36.883Z,5.23
2022-11-21T03:33:05.035Z,5.29
2022-11-21T03:35:34.154Z,5.30
2022-11-21T03:38:02.504Z,5.28
2022-11-21T03:40:30.161Z,5.27
2022-11-21T03:42:58.174Z,5.05
2022-11-21T03:45:25.882Z,5.17
2022-11-21T03:47:53.522Z,5.11
2022-11-21T03:50:21.889Z,5.25
2022-11-21T03:52:50.938Z,5.10
2022-11-21T03:55:18.830Z,4.97
2022-11-21T03:57:46.512Z,5.21
2022-11-21T04:00:16.099Z,5.02
2022-11-21T04:02:44.809Z,5.06
2022-11-21T04:05:12.778Z,5.01
2022-11-21T04:07:40.517Z,5.12
2022-11-21T04:10:11.199Z,5.14
2022-11-21T04:12:38.890Z,5.24
2022-11-21T04:15:13.163Z,5.23
2022-11-21T04:17:41.597Z,5.27
2022-11-21T04:20:10.780Z,5.19
2022-11-21T04:22:38.433Z,5.10
2022-11-21T04:25:07.556Z,5.00
2022-11-21T04:27:36.638Z,5.15
2022-11-21T04:30:05.151Z,4.88
2022-11-21T04:32:32.810Z,4.97
2022-11-21T04:35:00.941Z,4.83
2022-11-21T04:37:28.598Z,4.98
2022-11-21T04:39:56.745Z,4.99
2022-11-21T04:42:24.904Z,4.94
2022-11-21T04:44:54.285Z,4.96
2022-11-21T04:47:22.085Z,4.87
2022-11-21T04:49:50.178Z,4.71
2022-11-21T04:52:17.844Z,4.34
2022-11-21T04:54:45.972Z,4.22
2022-11-21T04:57:13.633Z,4.35
2022-11-21T04:59:41.622Z,4.46
2022-11-21T05:02:11.237Z,4.22
2022-11-21T05:04:39.896Z,4.23
2022-11-21T05:07:07.664Z,4.24
2022-11-21T05:09:35.692Z,4.27
2022-11-21T05:12:21.081Z,4.35
2022-11-21T05:14:49.140Z,4.18
2022-11-21T05:17:18.170Z,4.22
2022-11-21T05:19:46.276Z,4.08
2022-11-21T05:22:14.423Z,4.08
2022-11-21T05:24:42.259Z,4.09
2022-11-21T05:27:09.915Z,4.07
2022-11-21T05:29:37.869Z,4.28
2022-11-21T05:32:05.994Z,4.36
2022-11-21T05:34:35.402Z,4.26
2022-11-21T05:37:03.080Z,4.23
2022-11-21T05:39:31.123Z,4.41
2022-11-21T05:42:02.927Z,4.43
2022-11-21T05:44:30.559Z,4.34
2022-11-21T05:46:58.767Z,4.43
2022-11-21T05:49:26.461Z,4.40
2022-11-21T05:51:56.303Z,4.59
2022-11-21T05:54:23.968Z,4.55
2022-11-21T05:56:51.949Z,4.39
2022-11-21T05:59:19.675Z,4.56
2022-11-21T06:02:05.082Z,4.32
2022-11-21T06:04:32.793Z,4.35
2022-11-21T06:07:01.850Z,4.18
2022-11-21T06:09:29.568Z,4.21
2022-11-21T06:11:57.941Z,4.06
2022-11-21T06:14:25.824Z,4.17
2022-11-21T06:16:53.900Z,4.03
2022-11-21T06:19:21.576Z,4.25
2022-11-21T06:21:49.594Z,4.11
2022-11-21T06:24:22.144Z,4.35
2022-11-21T06:26:50.777Z,4.17
2022-11-21T06:29:18.419Z,4.17
2022-11-21T06:31:46.711Z,4.10
2022-11-21T06:34:14.407Z,4.13
2022-11-21T06:36:44.629Z,4.05
2022-11-21T06:39:12.290Z,3.94
2022-11-21T06:41:41.318Z,3.91
2022-11-21T06:44:09.167Z,4.04
2022-11-21T06:46:36.829Z,4.00
2022-11-21T06:49:04.738Z,3.71
2022-11-21T06:51:32.736Z,3.79
2022-11-21T06:54:00.384Z,3.63
2022-11-21T06:56:29.768Z,3.92
2022-11-21T06:58:59.769Z,3.78
2022-11-21T07:01:28.960Z,3.84
2022-11-21T07:03:56.877Z,3.85
2022-11-21T07:06:25.252Z,3.84
2022-11-21T07:09:17.629Z,3.78
2022-11-21T07:11:42.381Z,3.76
2022-11-21T07:14:10.518Z,3.74
2022-11-21T07:16:38.719Z,3.83
2022-11-21T07:19:06.526Z,3.85
2022-11-21T07:21:34.217Z,4.14
2022-11-21T07:24:01.889Z,4.23
2022-11-21T07:26:29.703Z,3.97
2022-11-21T07:28:57.350Z,4.11
2022-11-21T07:31:26.985Z,4.17
2022-11-21T07:33:54.652Z,4.21
2022-11-21T07:36:22.623Z,4.40
2022-11-21T07:38:50.334Z,4.29
2022-11-21T07:41:18.681Z,4.21
2022-11-21T07:43:46.345Z,4.27
2022-11-21T07:46:14.423Z,4.38
2022-11-21T07:48:43.609Z,4.26
2022-11-21T07:51:11.939Z,4.27
2022-11-21T07:53:39.598Z,4.33
2022-11-21T07:56:09.481Z,4.18
2022-11-21T07:58:38.263Z,4.22
2022-11-21T08:01:07.691Z,4.50
2022-11-21T08:03:36.202Z,4.40
2022-11-21T08:06:06.180Z,4.63
2022-11-21T08:08:33.820Z,4.59
2022-11-21T08:11:05.298Z,5.07
2022-11-21T08:13:33.435Z,5.42
2022-11-21T08:16:03.630Z,5.31
2022-11-21T08:18:31.747Z,5.45
2022-11-21T08:21:01.952Z,5.50
2022-11-21T08:23:31.699Z,5.69
2022-11-21T08:25:59.915Z,6.02
2022-11-21T08:28:28.165Z,6.04
2022-11-21T08:30:55.975Z,6.40
2022-11-21T08:33:23.920Z,6.51
2022-11-21T08:35:51.552Z,6.48
2022-11-21T08:38:19.514Z,6.82
2022-11-21T08:41:11.136Z,6.99
2022-11-21T08:43:42.709Z,6.87
2022-11-21T08:46:10.550Z,6.52
2022-11-21T08:48:38.488Z,6.97
2022-11-21T08:51:06.101Z,7.20
2022-11-21T08:53:34.413Z,7.11
2022-11-21T08:56:04.579Z,7.08
2022-11-21T08:58:32.764Z,7.40
2022-11-21T09:01:00.574Z,7.56
2022-11-21T09:03:31.390Z,7.45
2022-11-21T09:05:59.814Z,7.36
2022-11-21T09:08:28.589Z,7.21
2022-11-21T09:10:56.213Z,7.54
2022-11-21T09:13:25.719Z,8.64
2022-11-21T09:16:11.738Z,10.32
2022-11-21T09:18:40.667Z,11.68
2022-11-21T09:21:08.770Z,11.79
2022-11-21T09:23:36.735Z,12.35
2022-11-21T09:26:04.408Z,13.06
2022-11-21T09:28:33.761Z,12.80
2022-11-21T09:31:03.354Z,13.68
2022-11-21T09:33:31.862Z,14.38
2022-11-21T09:35:59.986Z,13.55
2022-11-21T09:38:27.876Z,12.78
2022-11-21T09:41:27.787Z,12.47
2022-11-21T09:44:07.812Z,10.58
2022-11-21T09:46:42.566Z,10.67
2022-11-21T09:49:15.132Z,9.70
2022-11-21T09:51:46.122Z,8.25
2022-11-21T09:54:22.645Z,8.64
2022-11-21T09:56:52.517Z,7.91
2022-11-21T09:59:34.361Z,8.37
2022-11-21T10:02:02.826Z,10.44
2022-11-21T10:04:32.641Z,10.84
2022-11-21T10:07:05.613Z,11.74
2022-11-21T10:09:51.284Z,12.13
2022-11-21T10:12:39.012Z,11.29
2022-11-21T10:15:28.015Z,10.27
2022-11-21T10:18:18.264Z,9.91
2022-11-21T10:20:58.969Z,10.08
2022-11-21T10:23:41.238Z,9.92
2022-11-21T10:26:24.021Z,9.31
2022-11-21T10:28:55.822Z,8.28
2022-11-21T10:31:25.773Z,9.66
2022-11-21T10:33:55.830Z,9.29
2022-11-21T10:36:28.361Z,10.12
2022-11-21T10:39:03.854Z,10.81
2022-11-21T10:41:41.525Z,12.59
2022-11-21T10:44:37.892Z,12.37
2022-11-21T10:47:15.943Z,12.44
2022-11-21T10:49:46.749Z,11.52
2022-11-21T10:52:16.980Z,10.90
2022-11-21T10:55:05.950Z,10.28
2022-11-21T10:57:40.580Z,9.51
2022-11-21T11:00:22.336Z,10.54
2022-11-21T11:03:04.948Z,11.09
2022-11-21T11:05:34.802Z,10.95
2022-11-21T11:08:06.086Z,10.65
2022-11-21T11:10:34.963Z,9.65
2022-11-21T11:16:17.075Z,8.15
2022-11-21T11:18:52.809Z,7.97
2022-11-21T11:21:23.522Z,8.82
2022-11-21T11:23:52.937Z,10.82
2022-11-21T11:26:24.181Z,11.59
2022-11-21T11:28:52.220Z,12.00
2022-11-21T11:31:20.184Z,11.93
2022-11-21T11:33:55.706Z,10.62
2022-11-21T11:36:35.552Z,10.08
2022-11-21T11:39:12.009Z,9.45
2022-11-21T11:42:42.736Z,9.77
2022-11-21T11:45:34.996Z,8.92
2022-11-21T11:48:10.318Z,9.49
2022-11-21T11:50:44.359Z,9.24
2022-11-21T11:53:16.591Z,9.25
2022-11-21T11:55:52.228Z,8.79
2022-11-21T11:58:26.573Z,8.76
2022-11-21T12:01:01.611Z,9.08
2022-11-21T12:03:40.561Z,8.86
2022-11-21T12:06:17.229Z,8.91
2022-11-21T12:08:53.463Z,8.62
2022-11-21T12:11:48.745Z,8.54
2022-11-21T12:14:47.124Z,8.54
2022-11-21T12:17:17.541Z,8.51
2022-11-21T12:19:45.510Z,8.61
2022-11-21T12:22:14.515Z,8.68
2022-11-21T12:24:43.419Z,8.93
2022-11-21T12:27:23.309Z,9.09
2022-11-21T12:30:10.706Z,9.35
2022-11-21T12:32:56.958Z,9.53
2022-11-21T12:36:09.001Z,9.65
2022-11-21T12:39:21.909Z,10.08
2022-11-21T12:42:15.649Z,11.04
2022-11-21T12:45:00.592Z,12.19
2022-11-21T12:47:59.916Z,12.66
2022-11-21T12:50:55.001Z,12.21
2022-11-21T12:53:48.260Z,12.22
2022-11-21T12:56:29.533Z,11.98
2022-11-21T12:59:01.365Z,11.84
2022-11-21T13:01:37.232Z,11.82
2022-11-21T13:04:06.826Z,11.76
2022-11-21T13:06:39.761Z,11.67
2022-11-21T13:09:13.763Z,11.21
2022-11-21T13:12:00.521Z,11.08
2022-11-21T13:14:42.638Z,10.86
2022-11-21T13:17:37.154Z,10.52
2022-11-21T13:20:15.378Z,10.54
2022-11-21T13:22:58.238Z,10.31
2022-11-21T13:25:47.336Z,9.92
2022-11-21T13:28:36.322Z,10.03
2022-11-21T13:31:30.726Z,9.89
2022-11-21T13:33:59.366Z,9.78
2022-11-21T13:36:43.681Z,9.95
2022-11-21T13:39:27.741Z,9.60
2022-11-21T13:42:30.604Z,9.82
2022-11-21T13:44:58.737Z,10.13
2022-11-21T13:48:05.849Z,10.27
2022-11-21T13:50:44.406Z,10.44
2022-11-21T13:53:31.856Z,10.46
2022-11-21T13:56:05.981Z,10.44
2022-11-21T13:58:48.493Z,10.42
2022-11-21T14:01:36.492Z,10.53
2022-11-21T14:04:48.746Z,10.74
2022-11-21T14:07:24.608Z,10.74
2022-11-21T14:09:53.298Z,10.65
2022-11-21T14:12:30.011Z,10.56
2022-11-21T14:15:20.731Z,10.48
2022-11-21T14:17:51.389Z,10.25
2022-11-21T14:20:22.577Z,10.28
2022-11-21T14:23:01.365Z,10.31
2022-11-21T14:25:36.629Z,10.31
2022-11-21T14:28:08.496Z,10.26
2022-11-21T14:30:38.356Z,10.17
2022-11-21T14:33:25.039Z,10.09
2022-11-21T14:35:55.185Z,10.14
2022-11-21T14:38:25.858Z,10.11
2022-11-21T14:41:25.762Z,10.11
2022-11-21T14:44:03.445Z,10.02
2022-11-21T14:46:33.231Z,9.87
2022-11-21T14:49:19.039Z,9.70
2022-11-21T14:51:49.143Z,9.59
2022-11-21T14:54:21.517Z,9.50
2022-11-21T14:56:55.581Z,9.39
2022-11-21T14:59:26.161Z,9.29
2022-11-21T15:02:00.217Z,9.17
2022-11-21T15:04:31.421Z,9.06
2022-11-21T15:06:59.692Z,9.03
2022-11-21T15:10:25.954Z,8.98
2022-11-21T15:12:24.426Z,8.87
2022-11-21T15:14:57.166Z,8.78
2022-11-21T15:17:26.566Z,8.65
2022-11-21T15:20:18.754Z,8.60
2022-11-21T15:22:48.559Z,8.47
2022-11-21T15:25:21.260Z,8.35
2022-11-21T15:27:50.197Z,8.21
2022-11-21T15:30:26.766Z,8.05
2022-11-21T15:33:16.416Z,7.92
2022-11-21T15:35:53.560Z,7.75
2022-11-21T15:38:28.434Z,7.58
2022-11-21T15:41:05.971Z,7.46
2022-11-21T15:43:45.235Z,7.52
2022-11-21T15:46:16.360Z,7.46
2022-11-21T15:48:47.087Z,7.39
2022-11-21T15:51:15.112Z,7.34
2022-11-21T15:53:43.305Z,7.35
2022-11-21T15:56:21.263Z,7.32
2022-11-21T15:58:50.654Z,7.28
2022-11-21T16:01:20.555Z,7.26
2022-11-21T16:03:50.983Z,7.18
2022-11-21T16:06:19.933Z,7.18
2022-11-21T16:08:48.020Z,7.17
2022-11-21T16:11:21.849Z,7.10
2022-11-21T16:13:51.512Z,7.03
2022-11-21T16:16:19.511Z,7.00
2022-11-21T16:18:47.898Z,6.98
2022-11-21T16:21:15.910Z,6.96
2022-11-21T16:23:44.591Z,6.92
2022-11-21T16:26:12.776Z,6.91
2022-11-21T16:28:42.247Z,6.90
2022-11-21T16:31:19.639Z,6.85
2022-11-21T16:33:48.221Z,6.82
2022-11-21T16:36:21.072Z,6.68
2022-11-21T16:38:49.286Z,6.62
2022-11-21T16:41:19.211Z,6.55
2022-11-21T16:43:50.372Z,6.53
2022-11-21T16:46:18.891Z,6.42
2022-11-21T16:48:46.697Z,6.37
2022-11-21T16:51:15.972Z,6.30
2022-11-21T16:53:44.442Z,6.28
2022-11-21T16:56:13.180Z,6.25
2022-11-21T16:58:42.414Z,6.22
2022-11-21T17:01:13.749Z,6.15
2022-11-21T17:03:42.964Z,6.10
2022-11-21T17:06:11.979Z,6.03
2022-11-21T17:08:40.341Z,5.92
2022-11-21T17:11:16.488Z,5.85
2022-11-21T17:13:45.104Z,5.79
2022-11-21T17:16:15.771Z,5.75
2022-11-21T17:18:43.758Z,5.69
2022-11-21T17:21:13.161Z,5.64
2022-11-21T17:23:43.392Z,5.65
2022-11-21T17:26:14.573Z,5.61
2022-11-21T17:28:45.843Z,5.59
2022-11-21T17:31:17.000Z,5.60
2022-11-21T17:33:50.050Z,5.60
2022-11-21T17:36:20.147Z,5.58
2022-11-21T17:38:48.070Z,5.54
2022-11-21T17:41:18.094Z,5.55
2022-11-21T17:43:47.173Z,5.59
2022-11-21T17:46:18.727Z,5.58
2022-11-21T17:48:54.361Z,5.55
2022-11-21T17:51:25.729Z,5.53
2022-11-21T17:53:54.359Z,5.55
2022-11-21T17:56:24.833Z,5.56
2022-11-21T17:58:53.202Z,5.58
2022-11-21T18:01:22.904Z,5.56
2022-11-21T18:03:56.645Z,5.56
2022-11-21T18:06:25.921Z,5.53
2022-11-21T18:08:53.895Z,5.52
2022-11-21T18:11:23.298Z,5.52
2022-11-21T18:13:51.342Z,5.51
2022-11-21T18:16:21.206Z,5.50
2022-11-21T18:18:51.442Z,5.49
2022-11-21T18:21:21.663Z,5.47
2022-11-21T18:23:49.592Z,5.43
2022-11-21T18:26:21.123Z,5.35
2022-11-21T18:29:06.895Z,5.34
2022-11-21T18:31:38.019Z,5.30
2022-11-21T18:34:07.577Z,5.19
2022-11-21T18:36:36.358Z,5.12
2022-11-21T18:39:10.501Z,5.11
2022-11-21T18:41:42.043Z,5.05
2022-11-21T18:44:10.120Z,5.06
2022-11-21T18:46:39.303Z,5.11
2022-11-21T18:49:08.734Z,5.15
2022-11-21T18:51:38.115Z,5.16
2022-11-21T18:54:09.599Z,5.10
2022-11-21T18:56:38.210Z,5.02
2022-11-21T18:59:06.864Z,4.99
2022-11-21T19:01:36.684Z,5.00
2022-11-21T19:04:04.978Z,5.00
2022-11-21T19:06:34.043Z,4.94
2022-11-21T19:09:01.659Z,4.92
2022-11-21T19:11:30.996Z,4.91
2022-11-21T19:14:00.317Z,4.90
2022-11-21T19:16:31.458Z,4.87
2022-11-21T19:19:32.568Z,4.81
2022-11-21T19:21:48.434Z,4.73
2022-11-21T19:24:16.414Z,4.51
2022-11-21T19:26:44.638Z,4.45
2022-11-21T19:29:12.805Z,4.44
2022-11-21T19:31:45.333Z,4.47
2022-11-21T19:34:13.920Z,4.49
2022-11-21T19:36:42.938Z,4.54
2022-11-21T19:39:12.899Z,4.54
2022-11-21T19:41:40.652Z,4.52
2022-11-21T19:44:08.305Z,4.52
2022-11-21T19:46:37.516Z,4.52
2022-11-21T19:49:06.141Z,4.52
2022-11-21T19:51:36.659Z,4.51
2022-11-21T19:54:05.179Z,4.51
2022-11-21T19:56:35.184Z,4.56
2022-11-21T19:59:02.878Z,4.54
2022-11-21T20:01:32.842Z,4.52
2022-11-21T20:04:02.661Z,4.51
2022-11-21T20:06:33.515Z,4.50
2022-11-21T20:09:03.268Z,4.52
2022-11-21T20:11:33.222Z,4.57
2022-11-21T20:14:02.904Z,4.63
2022-11-21T20:16:32.859Z,4.65
2022-11-21T20:19:03.052Z,4.63
2022-11-21T20:21:31.221Z,4.63
2022-11-21T20:23:59.425Z,4.64
2022-11-21T20:26:27.508Z,4.62
2022-11-21T20:28:55.870Z,4.64
2022-11-21T20:31:27.111Z,4.51
2022-11-21T20:33:58.158Z,4.43
2022-11-21T20:36:27.147Z,4.47
2022-11-21T20:38:56.771Z,4.42
2022-11-21T20:41:26.393Z,4.36
2022-11-21T20:46:44.752Z,4.40
2022-11-21T20:49:12.489Z,4.43
2022-11-21T20:54:28.244Z,4.45
2022-11-21T20:56:56.236Z,4.49
2022-11-21T20:59:23.910Z,4.52
2022-11-21T21:01:53.376Z,4.53
2022-11-21T21:04:21.165Z,4.60
2022-11-21T21:06:48.819Z,4.64
2022-11-21T21:09:16.521Z,4.68
2022-11-21T21:11:52.140Z,4.70
2022-11-21T21:14:21.020Z,4.67
2022-11-21T21:16:49.177Z,4.68
2022-11-21T21:19:19.135Z,4.69
2022-11-21T21:21:46.824Z,4.60
2022-11-21T21:24:15.000Z,4.56
2022-11-21T21:26:45.443Z,4.41
2022-11-21T21:29:16.099Z,4.52
2022-11-21T21:31:50.560Z,4.45
2022-11-21T21:34:21.195Z,4.46
2022-11-21T21:36:49.251Z,4.49
2022-11-21T21:39:17.298Z,4.50
2022-11-21T21:41:46.774Z,4.45
2022-11-21T21:44:16.417Z,4.42
2022-11-21T21:46:44.639Z,4.27
2022-11-21T21:49:13.028Z,4.32
2022-11-21T21:51:42.076Z,4.26
2022-11-21T21:54:17.370Z,4.18
2022-11-21T21:56:46.634Z,4.20
2022-11-21T21:59:15.567Z,4.17
2022-11-21T22:01:43.801Z,4.17
2022-11-21T22:04:13.241Z,4.26
2022-11-21T22:06:42.356Z,4.31
2022-11-21T22:09:10.791Z,4.34
2022-11-21T22:11:39.336Z,4.38
2022-11-21T22:14:11.446Z,4.46
2022-11-21T22:16:40.767Z,4.56
2022-11-21T22:19:09.097Z,4.63
2022-11-21T22:21:38.456Z,4.52
2022-11-21T22:24:29.529Z,4.55
2022-11-21T22:26:57.823Z,4.55
2022-11-21T22:29:25.501Z,4.55
2022-11-21T22:31:53.236Z,4.58
2022-11-21T22:34:21.564Z,4.57
2022-11-21T22:36:49.203Z,4.68
2022-11-21T22:39:18.742Z,4.66
2022-11-21T22:41:46.418Z,4.73
2022-11-21T22:44:14.800Z,4.79
2022-11-21T22:46:42.518Z,4.70
2022-11-21T22:49:10.702Z,4.72
2022-11-21T22:51:38.360Z,4.68
2022-11-21T22:54:06.635Z,4.57
2022-11-21T22:56:36.292Z,4.63
2022-11-21T22:59:04.642Z,4.56
2022-11-21T23:01:34.053Z,4.53
2022-11-21T23:04:02.432Z,4.57
2022-11-21T23:06:30.088Z,4.70
2022-11-21T23:08:58.886Z,4.73
2022-11-21T23:11:28.530Z,4.75
2022-11-21T23:13:57.635Z,4.83
2022-11-21T23:16:25.791Z,4.80
2022-11-21T23:18:54.533Z,4.88
2022-11-21T23:21:22.601Z,4.90
2022-11-21T23:23:50.920Z,4.90
2022-11-21T23:26:18.596Z,4.90
2022-11-21T23:28:46.867Z,4.93
2022-11-21T23:31:16.261Z,4.99
2022-11-21T23:33:44.356Z,5.01
2022-11-21T23:36:12.055Z,5.00
2022-11-21T23:38:40.423Z,5.03
2022-11-21T23:41:08.106Z,5.02
2022-11-21T23:43:36.108Z,5.11
2022-11-21T23:46:03.839Z,5.17
2022-11-21T23:48:32.809Z,5.18
2022-11-21T23:51:00.832Z,5.20
2022-11-21T23:53:28.448Z,5.22
2022-11-21T23:55:57.057Z,5.29
2022-11-21T23:58:24.694Z,5.36
